Time;durP1;ratioP1;P1;durP2;ratioP2;P2;SDS_P1;SDS_P2;PMS_P1;PMS_P2;Temp;Humidity;BMP_temperature;BMP_pressure;BME280_temperature;BME280_humidity;BME280_pressure;Samples;Min_cycle;Max_cycle;Signal;HPM_P1;HPM_P2
2022/02/28 00:01:23;;;;;;;14.23;6.05;;;;;;;;;;10617897;27;20420;-59
2022/02/28 00:06:24;;;;;;;10.75;5.78;;;;;;;;;;10616898;27;20031;-58
2022/02/28 00:11:25;;;;;;;9.20;6.07;;;;;;;;;;10617434;27;20027;-58
2022/02/28 00:16:25;;;;;;;10.53;5.80;;;;;;;;;;10616898;27;20080;-59
2022/02/28 00:21:26;;;;;;;7.40;5.37;;;;;;;;;;10613631;27;20958;-55
2022/02/28 00:26:27;;;;;;;10.15;6.15;;;;;;;;;;10616501;27;20463;-55
2022/02/28 00:31:28;;;;;;;9.77;5.55;;;;;;;;;;10614021;27;20466;-57
2022/02/28 00:36:28;;;;;;;8.00;5.30;;;;;;;;;;10616573;27;20039;-54
2022/02/28 00:41:29;;;;;;;8.27;5.70;;;;;;;;;;10617838;27;20108;-52
2022/02/28 00:46:29;;;;;;;9.90;5.80;;;;;;;;;;10617483;27;20030;-54
2022/02/28 00:51:29;;;;;;;11.90;5.87;;;;;;;;;;10616971;28;20066;-52
2022/02/28 00:56:30;;;;;;;7.83;5.67;;;;;;;;;;10617197;27;20508;-53
2022/02/28 01:01:30;;;;;;;14.30;5.80;;;;;;;;;;10616323;28;20051;-51
2022/02/28 01:06:31;;;;;;;8.70;5.53;;;;;;;;;;10616999;27;20949;-55
2022/02/28 01:11:32;;;;;;;8.43;5.57;;;;;;;;;;10616972;28;20058;-51
2022/02/28 01:16:32;;;;;;;9.02;4.57;;;;;;;;;;10617127;27;20019;-56
2022/02/28 01:21:33;;;;;;;10.27;5.40;;;;;;;;;;10622767;27;20026;-51
2022/02/28 01:26:34;;;;;;;7.20;5.57;;;;;;;;;;10625348;27;20494;-52
2022/02/28 01:31:34;;;;;;;7.60;4.90;;;;;;;;;;10621262;27;20031;-50
2022/02/28 01:36:35;;;;;;;7.25;5.07;;;;;;;;;;10620725;27;20035;-52
2022/02/28 01:41:35;;;;;;;9.55;5.45;;;;;;;;;;10624236;27;20065;-53
2022/02/28 01:46:38;;;;;;;9.43;5.65;;;;;;;;;;10623709;27;20028;-51
2022/02/28 01:51:39;;;;;;;8.80;5.50;;;;;;;;;;10623859;27;20019;-54
2022/02/28 01:56:40;;;;;;;7.90;5.15;;;;;;;;;;10623720;27;20073;-54
2022/02/28 02:01:40;;;;;;;8.02;5.18;;;;;;;;;;10623838;27;20019;-52
2022/02/28 02:06:41;;;;;;;7.53;5.25;;;;;;;;;;10623044;27;20068;-51
2022/02/28 02:11:41;;;;;;;10.60;5.93;;;;;;;;;;10623347;27;20023;-54
2022/02/28 02:16:42;;;;;;;7.22;4.97;;;;;;;;;;10604788;27;20031;-57
2022/02/28 02:21:42;;;;;;;6.03;4.47;;;;;;;;;;10622657;27;20443;-54
2022/02/28 02:26:42;;;;;;;6.25;4.43;;;;;;;;;;10622201;27;20439;-56
2022/02/28 02:31:43;;;;;;;8.33;4.73;;;;;;;;;;10621895;27;20371;-51
2022/02/28 02:36:43;;;;;;;6.97;5.00;;;;;;;;;;10618477;27;20564;-53
2022/02/28 02:41:44;;;;;;;7.80;5.17;;;;;;;;;;10622501;27;20043;-50
2022/02/28 02:46:48;;;;;;;7.63;4.83;;;;;;;;;;10618299;27;20459;-53
2022/02/28 02:51:48;;;;;;;10.15;4.72;;;;;;;;;;10621343;27;20960;-56
2022/02/28 02:56:49;;;;;;;7.28;4.82;;;;;;;;;;10621124;27;20030;-54
2022/02/28 03:01:49;;;;;;;7.43;4.90;;;;;;;;;;10621010;27;20047;-58
2022/02/28 03:06:49;;;;;;;7.05;4.80;;;;;;;;;;10620729;27;20449;-55
2022/02/28 03:11:50;;;;;;;7.90;4.97;;;;;;;;;;10621070;27;20050;-50
2022/02/28 03:16:50;;;;;;;5.13;4.37;;;;;;;;;;10620294;27;20038;-50
2022/02/28 03:21:51;;;;;;;7.60;4.23;;;;;;;;;;10619907;27;20478;-50
2022/02/28 03:26:51;;;;;;;6.45;4.40;;;;;;;;;;10619895;27;20473;-52
2022/02/28 03:31:52;;;;;;;6.93;4.60;;;;;;;;;;10619621;27;20015;-53
2022/02/28 03:36:52;;;;;;;7.00;4.18;;;;;;;;;;10619216;27;20482;-52
2022/02/28 03:41:53;;;;;;;6.30;4.18;;;;;;;;;;10618348;27;20023;-54
2022/02/28 03:46:53;;;;;;;6.43;4.40;;;;;;;;;;10615849;27;20027;-57
2022/02/28 03:51:54;;;;;;;7.33;4.40;;;;;;;;;;10618878;27;20048;-53
2022/02/28 03:56:55;;;;;;;7.07;4.30;;;;;;;;;;10615004;27;20497;-51
2022/02/28 04:01:55;;;;;;;6.25;4.32;;;;;;;;;;10618493;27;20020;-50
2022/02/28 04:06:55;;;;;;;5.00;3.93;;;;;;;;;;10618483;27;20019;-54
2022/02/28 04:11:56;;;;;;;7.85;4.47;;;;;;;;;;10618206;27;20502;-53
2022/02/28 04:16:56;;;;;;;7.28;4.55;;;;;;;;;;10618502;27;20038;-54
2022/02/28 04:21:57;;;;;;;10.47;4.23;;;;;;;;;;10617831;27;20116;-55
2022/02/28 04:26:57;;;;;;;4.90;4.20;;;;;;;;;;10617951;27;20474;-50
2022/02/28 04:32:00;;;;;;;7.07;4.07;;;;;;;;;;10617652;27;20032;-55
2022/02/28 04:37:01;;;;;;;8.98;3.80;;;;;;;;;;10617574;27;20092;-53
2022/02/28 04:42:01;;;;;;;4.03;3.50;;;;;;;;;;10617473;27;20023;-54
2022/02/28 04:47:02;;;;;;;4.90;3.70;;;;;;;;;;10617360;27;20474;-53
2022/02/28 04:52:02;;;;;;;5.20;3.92;;;;;;;;;;10618122;27;20945;-55
2022/02/28 04:57:03;;;;;;;5.63;3.97;;;;;;;;;;10623250;27;20137;-55
2022/02/28 05:02:03;;;;;;;7.38;3.90;;;;;;;;;;10623253;27;20030;-52
2022/02/28 05:07:04;;;;;;;4.55;3.63;;;;;;;;;;10625781;27;20490;-54
2022/02/28 05:12:04;;;;;;;6.30;3.97;;;;;;;;;;10625628;27;20489;-49
2022/02/28 05:17:05;;;;;;;6.43;4.05;;;;;;;;;;10625360;27;20031;-51
2022/02/28 05:22:05;;;;;;;7.33;3.53;;;;;;;;;;10625686;27;20065;-51
2022/02/28 05:27:09;;;;;;;4.70;3.53;;;;;;;;;;10625066;27;20034;-51
2022/02/28 05:32:09;;;;;;;4.93;3.70;;;;;;;;;;10624709;27;20059;-50
2022/02/28 05:37:09;;;;;;;4.43;3.30;;;;;;;;;;10624858;27;20130;-52
2022/02/28 05:42:10;;;;;;;4.57;3.47;;;;;;;;;;10624269;27;20432;-52
2022/02/28 05:47:10;;;;;;;4.57;3.43;;;;;;;;;;10624154;27;20111;-49
2022/02/28 05:52:10;;;;;;;4.13;3.40;;;;;;;;;;10624095;27;20023;-51
2022/02/28 05:57:11;;;;;;;7.25;3.95;;;;;;;;;;10623853;27;20110;-51
2022/02/28 06:02:11;;;;;;;6.57;3.60;;;;;;;;;;10620175;27;20023;-51
2022/02/28 06:07:11;;;;;;;5.37;3.70;;;;;;;;;;10622639;27;20780;-51
2022/02/28 06:12:12;;;;;;;4.03;3.30;;;;;;;;;;10620204;27;20458;-51
2022/02/28 06:17:12;;;;;;;10.77;3.80;;;;;;;;;;10622965;27;20488;-52
2022/02/28 06:22:13;;;;;;;4.68;3.28;;;;;;;;;;10622983;27;20517;-53
2022/02/28 06:27:14;;;;;;;4.40;3.63;;;;;;;;;;10622675;27;20451;-56
2022/02/28 06:32:14;;;;;;;9.90;3.80;;;;;;;;;;10622198;27;20105;-50
2022/02/28 06:37:15;;;;;;;5.20;3.58;;;;;;;;;;10621540;27;20092;-51
2022/02/28 06:42:15;;;;;;;8.80;3.57;;;;;;;;;;10622102;27;20115;-50
2022/02/28 06:47:16;;;;;;;28.50;3.60;;;;;;;;;;10621432;27;20432;-59
2022/02/28 06:52:17;;;;;;;4.53;3.37;;;;;;;;;;10621178;27;20023;-60
2022/02/28 06:57:17;;;;;;;6.03;3.60;;;;;;;;;;10621768;27;20542;-60
2022/02/28 07:02:18;;;;;;;6.87;4.10;;;;;;;;;;10621790;27;20102;-59
2022/02/28 07:07:18;;;;;;;11.27;3.70;;;;;;;;;;10620327;27;20776;-60
2022/02/28 07:12:19;;;;;;;11.77;4.17;;;;;;;;;;10616629;27;20033;-60
2022/02/28 07:17:19;;;;;;;7.60;3.53;;;;;;;;;;10615900;27;20459;-59
2022/02/28 07:22:19;;;;;;;7.70;4.20;;;;;;;;;;10620310;27;20027;-61
2022/02/28 07:27:20;;;;;;;16.47;4.80;;;;;;;;;;10619100;27;20512;-59
2022/02/28 07:32:20;;;;;;;14.07;4.63;;;;;;;;;;10618973;27;20507;-59
2022/02/28 07:37:21;;;;;;;15.67;4.33;;;;;;;;;;10619421;27;20047;-59
2022/02/28 07:42:21;;;;;;;12.90;4.20;;;;;;;;;;10619047;27;20435;-59
2022/02/28 07:47:22;;;;;;;9.68;4.38;;;;;;;;;;10618802;27;20023;-59
2022/02/28 07:52:22;;;;;;;14.90;4.20;;;;;;;;;;10619683;27;20025;-60
2022/02/28 07:57:22;;;;;;;6.30;4.50;;;;;;;;;;10618819;27;21043;-59
2022/02/28 08:02:24;;;;;;;11.00;4.57;;;;;;;;;;10618061;27;20531;-59
2022/02/28 08:07:24;;;;;;;8.80;4.55;;;;;;;;;;10617965;27;20490;-59
2022/02/28 08:12:25;;;;;;;8.70;4.47;;;;;;;;;;10619497;27;20022;-60
2022/02/28 08:17:25;;;;;;;12.27;4.72;;;;;;;;;;10614491;27;20543;-59
2022/02/28 08:22:26;;;;;;;8.87;4.40;;;;;;;;;;10614711;27;20435;-59
2022/02/28 08:27:27;;;;;;;10.68;4.28;;;;;;;;;;10618174;27;20447;-59
2022/02/28 08:32:27;;;;;;;14.60;4.80;;;;;;;;;;10617626;27;20102;-59
2022/02/28 08:37:27;;;;;;;7.67;3.47;;;;;;;;;;10617391;27;20424;-59
2022/02/28 08:42:29;;;;;;;8.68;4.30;;;;;;;;;;10618195;27;20452;-60
2022/02/28 08:47:30;;;;;;;11.97;4.20;;;;;;;;;;10617640;27;20102;-59
2022/02/28 08:52:32;;;;;;;6.68;4.10;;;;;;;;;;10617700;28;20427;-59
2022/02/28 08:57:34;;;;;;;10.93;4.00;;;;;;;;;;10617342;27;20033;-59
2022/02/28 09:02:35;;;;;;;7.82;3.90;;;;;;;;;;10617136;28;20031;-59
2022/02/28 09:07:36;;;;;;;8.35;4.30;;;;;;;;;;10617035;27;20098;-59
2022/02/28 09:12:36;;;;;;;6.72;4.40;;;;;;;;;;10616729;28;20520;-59
2022/02/28 09:17:37;;;;;;;11.17;4.80;;;;;;;;;;10617384;27;20058;-59
2022/02/28 09:22:37;;;;;;;7.32;4.18;;;;;;;;;;10613824;28;20027;-59
2022/02/28 09:27:39;;;;;;;7.15;3.72;;;;;;;;;;10617479;27;20021;-59
2022/02/28 09:32:39;;;;;;;9.07;4.78;;;;;;;;;;10613463;28;20030;-59
2022/02/28 09:37:39;;;;;;;6.77;4.40;;;;;;;;;;10615789;27;20039;-59
2022/02/28 09:42:40;;;;;;;7.72;4.40;;;;;;;;;;10621820;27;20448;-59
2022/02/28 09:47:40;;;;;;;7.50;3.88;;;;;;;;;;10623577;27;20019;-59
2022/02/28 09:52:41;;;;;;;6.72;4.13;;;;;;;;;;10624061;27;20053;-59
2022/02/28 09:57:46;;;;;;;9.73;4.22;;;;;;;;;;10604317;27;20092;-59
2022/02/28 10:02:48;;;;;;;7.13;4.25;;;;;;;;;;10623652;27;20023;-59
2022/02/28 10:07:58;;;;;;;5.25;3.58;;;;;;;;;;10623748;27;20458;-59
2022/02/28 10:12:58;;;;;;;5.45;3.65;;;;;;;;;;10624223;27;20022;-59
2022/02/28 10:18:05;;;;;;;6.10;3.80;;;;;;;;;;10623125;27;20030;-59
2022/02/28 10:23:11;;;;;;;7.68;4.47;;;;;;;;;;10623515;27;20424;-59
2022/02/28 10:28:25;;;;;;;7.32;3.90;;;;;;;;;;10622980;27;20034;-59
2022/02/28 10:33:34;;;;;;;5.43;3.58;;;;;;;;;;10616991;27;20031;-59
2022/02/28 10:38:34;;;;;;;;;;;;;;;;;;10622560;27;20496;-60
2022/02/28 10:43:36;;;;;;;4.90;4.20;;;;;;;;;;10621152;27;19916;-59
2022/02/28 10:48:36;;;;;;;6.32;3.88;;;;;;;;;;10621422;27;20019;-59
2022/02/28 10:53:37;;;;;;;4.73;3.80;;;;;;;;;;10621051;27;20023;-60
2022/02/28 10:58:38;;;;;;;4.88;3.60;;;;;;;;;;10621670;27;20456;-59
2022/02/28 11:03:48;;;;;;;5.47;3.97;;;;;;;;;;10621394;27;20080;-59
2022/02/28 11:08:48;;;;;;;5.78;3.60;;;;;;;;;;10620525;27;20023;-59
2022/02/28 11:13:49;;;;;;;5.32;3.97;;;;;;;;;;10620693;27;20041;-59
2022/02/28 11:18:49;;;;;;;4.83;3.40;;;;;;;;;;10619620;27;20099;-59
2022/02/28 11:23:50;;;;;;;4.70;3.57;;;;;;;;;;10618639;27;20436;-59
2022/02/28 11:28:50;;;;;;;5.32;3.38;;;;;;;;;;10617939;27;20080;-59
2022/02/28 11:34:00;;;;;;;6.40;3.37;;;;;;;;;;10616043;27;20047;-59
2022/02/28 11:39:13;;;;;;;6.38;3.47;;;;;;;;;;10614062;27;20478;-59
2022/02/28 11:44:15;;;;;;;5.50;3.70;;;;;;;;;;10618151;27;20039;-59
2022/02/28 11:49:19;;;;;;;5.40;3.75;;;;;;;;;;10617859;27;20056;-59
2022/02/28 11:54:26;;;;;;;4.70;3.50;;;;;;;;;;10617097;27;20501;-59
2022/02/28 11:59:30;;;;;;;8.13;3.50;;;;;;;;;;10617421;27;20378;-59
2022/02/28 12:04:44;;;;;;;6.55;3.78;;;;;;;;;;10616562;27;20027;-59
2022/02/28 12:09:46;;;;;;;6.95;3.65;;;;;;;;;;10619019;27;20038;-59
2022/02/28 12:15:03;;;;;;;5.80;3.65;;;;;;;;;;10619083;27;20075;-59
2022/02/28 12:20:21;;;;;;;8.23;4.10;;;;;;;;;;10618904;27;20031;-59
2022/02/28 12:25:31;;;;;;;;;;;;;;;;;;10619516;27;20027;-60
2022/02/28 12:30:37;;;;;;;7.00;3.72;;;;;;;;;;10618751;27;19964;-59
2022/02/28 12:35:56;;;;;;;6.00;3.45;;;;;;;;;;10617996;27;20050;-60
2022/02/28 12:40:59;;;;;;;7.30;3.60;;;;;;;;;;10615030;27;20031;-59
2022/02/28 12:46:07;;;;;;;7.13;3.42;;;;;;;;;;10613974;27;20051;-60
2022/02/28 12:51:10;;;;;;;11.05;3.67;;;;;;;;;;10617509;28;20048;-59
2022/02/28 12:56:15;;;;;;;9.75;3.50;;;;;;;;;;10617826;27;20440;-59
2022/02/28 13:01:18;;;;;;;8.88;3.58;;;;;;;;;;10617333;28;20031;-59
2022/02/28 13:06:23;;;;;;;8.82;3.83;;;;;;;;;;10617209;27;20027;-59
2022/02/28 13:11:24;;;;;;;5.82;3.30;;;;;;;;;;10617324;28;20106;-59
2022/02/28 13:16:25;;;;;;;5.20;3.33;;;;;;;;;;10622865;27;20030;-60
2022/02/28 13:21:33;;;;;;;6.25;3.03;;;;;;;;;;10625493;27;20063;-59
2022/02/28 13:26:34;;;;;;;7.03;3.65;;;;;;;;;;10625178;27;20106;-59
2022/02/28 13:31:36;;;;;;;9.60;4.05;;;;;;;;;;10625681;27;20102;-59
2022/02/28 13:36:39;;;;;;;5.47;3.30;;;;;;;;;;10624135;27;20547;-59
2022/02/28 13:41:41;;;;;;;6.78;3.28;;;;;;;;;;10624887;27;20085;-59
2022/02/28 13:47:12;;;;;;;6.25;3.63;;;;;;;;;;10621358;27;20061;-60
2022/02/28 13:52:16;;;;;;;11.63;3.67;;;;;;;;;;10602481;27;20088;-59
2022/02/28 13:57:17;;;;;;;5.22;3.10;;;;;;;;;;10623522;27;20031;-59
2022/02/28 14:02:17;;;;;;;9.55;3.50;;;;;;;;;;10623873;27;20462;-59
2022/02/28 14:07:18;;;;;;;7.43;4.18;;;;;;;;;;10624099;27;20023;-59
2022/02/28 14:12:29;;;;;;;8.10;3.40;;;;;;;;;;10623532;27;20047;-59
2022/02/28 14:17:31;;;;;;;10.02;4.00;;;;;;;;;;10623669;27;20037;-59
2022/02/28 14:22:31;;;;;;;7.78;3.97;;;;;;;;;;10623503;27;20027;-59
2022/02/28 14:27:32;;;;;;;7.00;3.47;;;;;;;;;;10603864;27;20027;-59
2022/02/28 14:32:32;;;;;;;5.50;3.78;;;;;;;;;;10622500;27;20403;-59
2022/02/28 14:37:33;;;;;;;9.70;3.53;;;;;;;;;;10622099;27;20047;-59
2022/02/28 14:42:36;;;;;;;7.78;3.55;;;;;;;;;;10622232;27;20024;-59
2022/02/28 14:47:37;;;;;;;8.00;3.97;;;;;;;;;;10623146;27;20023;-59
2022/02/28 14:52:37;;;;;;;5.70;3.77;;;;;;;;;;10619158;27;20462;-59
2022/02/28 14:57:38;;;;;;;5.40;3.33;;;;;;;;;;10618209;27;20608;-59
2022/02/28 15:02:38;;;;;;;4.80;3.20;;;;;;;;;;10621930;27;20023;-59
2022/02/28 15:07:39;;;;;;;6.28;3.90;;;;;;;;;;10621112;27;20031;-59
2022/02/28 15:12:39;;;;;;;9.43;3.58;;;;;;;;;;10621581;27;20022;-59
2022/02/28 15:17:40;;;;;;;8.45;4.53;;;;;;;;;;10621239;27;20035;-59
2022/02/28 15:22:40;;;;;;;4.60;3.70;;;;;;;;;;10620733;27;20022;-59
2022/02/28 15:27:40;;;;;;;6.77;3.60;;;;;;;;;;10620480;27;21201;-59
2022/02/28 15:32:41;;;;;;;9.73;4.23;;;;;;;;;;10620196;27;20514;-59
2022/02/28 15:37:42;;;;;;;6.30;4.10;;;;;;;;;;10619243;27;20058;-59
2022/02/28 15:42:44;;;;;;;7.10;4.20;;;;;;;;;;10619609;27;20101;-59
2022/02/28 15:47:44;;;;;;;5.45;4.25;;;;;;;;;;10619974;27;20110;-59
2022/02/28 15:52:47;;;;;;;7.43;4.00;;;;;;;;;;10619899;27;20107;-59
2022/02/28 15:57:49;;;;;;;7.80;4.15;;;;;;;;;;10612615;27;20464;-59
2022/02/28 16:02:49;;;;;;;6.38;4.13;;;;;;;;;;10618853;27;20044;-59
2022/02/28 16:07:50;;;;;;;5.20;3.67;;;;;;;;;;10619299;27;20080;-59
2022/02/28 16:12:51;;;;;;;4.82;4.00;;;;;;;;;;10618632;27;20462;-60
2022/02/28 16:17:51;;;;;;;6.63;3.97;;;;;;;;;;10618139;27;20050;-59
2022/02/28 16:22:52;;;;;;;6.87;4.43;;;;;;;;;;10618432;27;20028;-59
2022/02/28 16:27:52;;;;;;;6.57;4.07;;;;;;;;;;10619145;27;20465;-59
2022/02/28 16:32:54;;;;;;;6.27;4.43;;;;;;;;;;10618597;27;20103;-60
2022/02/28 16:37:55;;;;;;;6.60;4.75;;;;;;;;;;10617585;27;20083;-60
2022/02/28 16:42:55;;;;;;;8.07;4.40;;;;;;;;;;10618433;27;20062;-60
2022/02/28 16:47:56;;;;;;;7.45;4.38;;;;;;;;;;10598303;27;20471;-59
2022/02/28 16:52:57;;;;;;;7.68;4.43;;;;;;;;;;10617477;28;20118;-59
2022/02/28 16:57:58;;;;;;;7.28;4.80;;;;;;;;;;10614637;27;20030;-59
2022/02/28 17:02:59;;;;;;;9.65;4.57;;;;;;;;;;10617413;28;20057;-59
2022/02/28 17:07:59;;;;;;;11.13;4.35;;;;;;;;;;10613952;27;20037;-59
2022/02/28 17:13:00;;;;;;;7.07;4.97;;;;;;;;;;10617232;28;20046;-59
2022/02/28 17:18:00;;;;;;;8.47;4.30;;;;;;;;;;10616973;27;20115;-59
2022/02/28 17:23:01;;;;;;;9.45;4.60;;;;;;;;;;10616877;28;20427;-59
2022/02/28 17:28:01;;;;;;;6.50;4.38;;;;;;;;;;10616953;27;20204;-59
2022/02/28 17:33:02;;;;;;;9.32;4.82;;;;;;;;;;10616831;28;20024;-59
2022/02/28 17:38:02;;;;;;;9.60;4.65;;;;;;;;;;10616345;27;20080;-58
2022/02/28 17:43:04;;;;;;;6.82;4.53;;;;;;;;;;10616273;28;20051;-59
2022/02/28 17:48:06;;;;;;;6.35;4.28;;;;;;;;;;10616872;27;20059;-56
2022/02/28 17:53:07;;;;;;;6.65;4.43;;;;;;;;;;10616277;28;20023;-55
2022/02/28 17:58:07;;;;;;;10.30;4.50;;;;;;;;;;10615870;27;20020;-55
2022/02/28 18:03:09;;;;;;;9.55;4.07;;;;;;;;;;10617913;27;21106;-55
2022/02/28 18:08:09;;;;;;;7.88;4.50;;;;;;;;;;10623551;27;20438;-54
2022/02/28 18:13:10;;;;;;;13.15;4.22;;;;;;;;;;10620360;27;20027;-58
2022/02/28 18:18:10;;;;;;;6.83;4.80;;;;;;;;;;10623115;27;20031;-57
2022/02/28 18:23:10;;;;;;;9.00;4.40;;;;;;;;;;10620971;27;20459;-56
2022/02/28 18:28:12;;;;;;;8.97;4.20;;;;;;;;;;10622163;27;20432;-55
2022/02/28 18:33:12;;;;;;;8.32;4.75;;;;;;;;;;10621037;27;20432;-55
2022/02/28 18:38:13;;;;;;;8.57;4.50;;;;;;;;;;10620670;27;20039;-54
2022/02/28 18:43:15;;;;;;;7.32;4.45;;;;;;;;;;10621897;27;20958;-53
2022/02/28 18:48:16;;;;;;;6.68;4.60;;;;;;;;;;10621724;27;20023;-56
2022/02/28 18:53:18;;;;;;;10.18;4.57;;;;;;;;;;10621745;27;20027;-58
2022/02/28 18:58:19;;;;;;;6.13;4.25;;;;;;;;;;10621489;27;20084;-57
2022/02/28 19:03:19;;;;;;;6.60;4.10;;;;;;;;;;10620935;27;20026;-55
2022/02/28 19:08:24;;;;;;;24.58;6.43;;;;;;;;;;10621236;27;20031;-55
2022/02/28 19:13:25;;;;;;;24.77;6.55;;;;;;;;;;10618495;27;20023;-54
2022/02/28 19:18:26;;;;;;;17.65;4.93;;;;;;;;;;10599558;27;20360;-55
2022/02/28 19:23:27;;;;;;;14.18;5.28;;;;;;;;;;10621316;27;20030;-54
2022/02/28 19:28:27;;;;;;;9.32;4.80;;;;;;;;;;10620738;27;20359;-54
2022/02/28 19:33:27;;;;;;;8.40;4.67;;;;;;;;;;10621161;27;20041;-54
2022/02/28 19:38:28;;;;;;;11.52;4.88;;;;;;;;;;10619382;27;20471;-53
2022/02/28 19:43:28;;;;;;;12.70;5.07;;;;;;;;;;10619309;27;20105;-55
2022/02/28 19:48:29;;;;;;;8.32;4.40;;;;;;;;;;10620378;27;20065;-55
2022/02/28 19:53:29;;;;;;;8.23;4.80;;;;;;;;;;10618227;27;20490;-53
2022/02/28 19:58:30;;;;;;;7.00;4.25;;;;;;;;;;10618252;27;20558;-52
2022/02/28 20:03:30;;;;;;;9.60;4.57;;;;;;;;;;10618951;27;20159;-51
2022/02/28 20:08:31;;;;;;;14.95;4.35;;;;;;;;;;10618504;27;20023;-52
2022/02/28 20:13:31;;;;;;;7.60;4.25;;;;;;;;;;10619079;27;20027;-51
2022/02/28 20:18:32;;;;;;;8.35;4.10;;;;;;;;;;10615104;27;20024;-53
2022/02/28 20:23:32;;;;;;;10.77;4.77;;;;;;;;;;10617314;27;20389;-52
2022/02/28 20:28:32;;;;;;;7.43;4.53;;;;;;;;;;10614468;27;20440;-56
2022/02/28 20:33:33;;;;;;;14.90;4.40;;;;;;;;;;10617732;27;20030;-54
2022/02/28 20:38:33;;;;;;;9.23;4.32;;;;;;;;;;10617203;27;20134;-54
2022/02/28 20:43:35;;;;;;;6.27;4.20;;;;;;;;;;10616979;27;20027;-55
2022/02/28 20:48:38;;;;;;;13.88;4.75;;;;;;;;;;10617287;27;20689;-52
2022/02/28 20:53:39;;;;;;;8.23;3.70;;;;;;;;;;10617493;28;20505;-54
2022/02/28 20:58:39;;;;;;;9.90;5.22;;;;;;;;;;10617305;27;20160;-54
2022/02/28 21:03:40;;;;;;;10.35;3.78;;;;;;;;;;10617202;28;20019;-51
2022/02/28 21:08:40;;;;;;;7.93;3.88;;;;;;;;;;10616757;27;20061;-55
2022/02/28 21:13:41;;;;;;;7.63;3.73;;;;;;;;;;10617700;28;20027;-54
2022/02/28 21:18:42;;;;;;;11.23;4.53;;;;;;;;;;10617413;27;20499;-54
2022/02/28 21:23:43;;;;;;;11.73;3.90;;;;;;;;;;10616641;28;20454;-56
2022/02/28 21:28:45;;;;;;;9.52;4.03;;;;;;;;;;10612769;27;20026;-56
2022/02/28 21:33:46;;;;;;;5.82;3.70;;;;;;;;;;10613659;28;20106;-56
2022/02/28 21:38:46;;;;;;;9.40;3.63;;;;;;;;;;10622568;27;20133;-56
2022/02/28 21:43:47;;;;;;;9.73;4.77;;;;;;;;;;10624676;27;20173;-57
2022/02/28 21:48:48;;;;;;;5.77;4.00;;;;;;;;;;10624400;27;20509;-57
2022/02/28 21:53:48;;;;;;;12.73;4.10;;;;;;;;;;10624256;27;21010;-57
2022/02/28 21:58:50;;;;;;;10.07;4.00;;;;;;;;;;10624034;27;20110;-57
2022/02/28 22:03:50;;;;;;;7.95;3.75;;;;;;;;;;10624098;27;20431;-57
2022/02/28 22:08:51;;;;;;;7.47;4.30;;;;;;;;;;10623642;27;20030;-55
2022/02/28 22:13:51;;;;;;;5.50;3.60;;;;;;;;;;10623330;27;20042;-57
2022/02/28 22:18:52;;;;;;;8.02;3.40;;;;;;;;;;10622306;27;20382;-54
2022/02/28 22:23:52;;;;;;;5.85;3.80;;;;;;;;;;10622360;27;20042;-55
2022/02/28 22:28:52;;;;;;;8.63;3.43;;;;;;;;;;10622574;27;20019;-55
2022/02/28 22:33:54;;;;;;;7.97;3.30;;;;;;;;;;10619516;27;20434;-55
2022/02/28 22:38:54;;;;;;;8.13;3.83;;;;;;;;;;10617240;27;20077;-53
2022/02/28 22:43:56;;;;;;;5.30;3.33;;;;;;;;;;10620282;27;20058;-53
2022/02/28 22:48:59;;;;;;;6.18;3.35;;;;;;;;;;10621084;27;20042;-54
2022/02/28 22:53:59;;;;;;;6.45;2.92;;;;;;;;;;10621122;27;20027;-55
2022/02/28 22:58:59;;;;;;;5.80;3.40;;;;;;;;;;10617515;27;20080;-53
2022/02/28 23:04:18;;;;;;;5.23;3.20;;;;;;;;;;10619810;27;20784;-50
2022/02/28 23:19:57;;;;;;;;;;;;;;;;;;10620816;27;20039;-52
2022/02/28 23:24:58;;;;;;;6.15;3.10;;;;;;;;;;10602611;27;20410;-51
2022/02/28 23:29:58;;;;;;;4.10;3.03;;;;;;;;;;10620678;27;20424;-53
2022/02/28 23:34:58;;;;;;;4.10;3.25;;;;;;;;;;10617949;27;20570;-53
2022/02/28 23:39:59;;;;;;;3.67;3.00;;;;;;;;;;10615795;27;20394;-51
2022/02/28 23:45:00;;;;;;;4.25;2.83;;;;;;;;;;10618884;27;20439;-51
2022/02/28 23:50:00;;;;;;;4.40;2.90;;;;;;;;;;10614806;27;20034;-51
2022/02/28 23:55:01;;;;;;;7.97;3.00;;;;;;;;;;10619012;27;20025;-51
